Time;durP1;ratioP1;P1;durP2;ratioP2;P2;SDS_P1;SDS_P2;PMS_P1;PMS_P2;Temp;Humidity;BMP_temperature;BMP_pressure;BME280_temperature;BME280_humidity;BME280_pressure;Samples;Min_cycle;Max_cycle;Signal;HPM_P1;HPM_P2
2021/07/11 00:00:00;;;;;;;56.90;37.43;;;16.20;1.00;;;;;;4976757;28;20215;-64
2021/07/11 00:02:29;;;;;;;58.90;35.97;;;16.30;1.00;;;;;;4976133;28;20719;-64
2021/07/11 00:04:56;;;;;;;57.10;36.13;;;16.20;1.00;;;;;;4976281;28;20213;-64
2021/07/11 00:07:22;;;;;;;55.53;35.67;;;16.20;1.00;;;;;;4976211;28;20247;-64
2021/07/11 00:09:50;;;;;;;62.60;37.33;;;16.20;1.00;;;;;;4976135;28;20213;-64
2021/07/11 00:12:17;;;;;;;60.60;36.93;;;16.20;1.00;;;;;;4976458;28;20287;-64
2021/07/11 00:14:44;;;;;;;55.23;35.47;;;16.30;1.00;;;;;;4976184;28;20209;-64
2021/07/11 00:17:10;;;;;;;60.47;35.93;;;16.40;1.00;;;;;;4976180;28;20294;-64
2021/07/11 00:19:37;;;;;;;54.87;36.30;;;16.40;1.00;;;;;;4976119;28;20622;-64
2021/07/11 00:22:04;;;;;;;55.20;37.07;;;16.40;1.00;;;;;;4976142;28;20204;-64
2021/07/11 00:24:30;;;;;;;51.50;36.50;;;16.40;99.90;;;;;;4976128;28;20219;-64
2021/07/11 00:26:58;;;;;;;53.17;35.87;;;16.50;99.90;;;;;;4976047;28;20238;-64
2021/07/11 00:29:25;;;;;;;55.13;35.73;;;16.40;99.90;;;;;;4976102;28;20208;-64
2021/07/11 00:31:52;;;;;;;49.87;35.27;;;16.40;99.90;;;;;;4976029;28;20287;-64
2021/07/11 00:34:18;;;;;;;48.73;33.53;;;16.40;99.90;;;;;;4975678;28;20577;-64
2021/07/11 00:36:45;;;;;;;46.57;32.43;;;16.30;99.90;;;;;;4975677;28;20228;-64
2021/07/11 00:39:11;;;;;;;45.27;32.10;;;16.30;99.90;;;;;;4976010;28;20350;-64
2021/07/11 00:41:39;;;;;;;41.17;30.13;;;16.30;99.90;;;;;;4975886;28;20205;-64
2021/07/11 00:44:08;;;;;;;41.57;30.17;;;16.20;99.90;;;;;;4975705;28;20215;-64
2021/07/11 00:46:35;;;;;;;42.30;30.07;;;16.20;99.90;;;;;;4975543;28;20233;-64
2021/07/11 00:49:03;;;;;;;41.97;29.27;;;16.10;99.90;;;;;;4975697;28;20205;-64
2021/07/11 00:51:30;;;;;;;48.50;32.03;;;16.10;99.90;;;;;;4975079;28;20228;-64
2021/07/11 00:53:57;;;;;;;51.37;33.33;;;16.10;99.90;;;;;;4975065;28;20208;-64
2021/07/11 00:56:23;;;;;;;56.53;36.30;;;16.10;99.90;;;;;;4975309;28;20248;-64
2021/07/11 00:58:50;;;;;;;58.40;37.10;;;16.10;99.90;;;;;;4975319;28;20578;-64
2021/07/11 01:01:24;;;;;;;56.33;36.57;;;16.10;99.90;;;;;;4975383;28;20204;-64
2021/07/11 01:03:56;;;;;;;58.20;35.60;;;16.00;1.00;;;;;;4975091;28;20212;-64
2021/07/11 01:06:24;;;;;;;59.23;34.70;;;16.00;1.00;;;;;;4975121;28;20712;-64
2021/07/11 01:08:55;;;;;;;58.00;34.23;;;16.00;1.00;;;;;;4975382;28;20208;-64
2021/07/11 01:11:25;;;;;;;53.87;33.30;;;16.00;1.00;;;;;;4975149;28;20228;-64
2021/07/11 01:13:55;;;;;;;49.60;30.73;;;16.00;1.00;;;;;;4975121;28;20216;-64
2021/07/11 01:16:28;;;;;;;52.30;29.90;;;16.00;1.00;;;;;;4974837;28;20229;-64
2021/07/11 01:18:59;;;;;;;53.57;31.80;;;15.90;1.00;;;;;;4975335;28;20219;-64
2021/07/11 01:21:27;;;;;;;48.67;27.90;;;15.90;1.00;;;;;;4975173;28;20267;-64
2021/07/11 01:23:58;;;;;;;44.40;25.03;;;15.90;1.00;;;;;;4974931;28;20212;-64
2021/07/11 01:26:28;;;;;;;40.27;23.10;;;15.90;1.00;;;;;;4974915;28;20299;-64
2021/07/11 01:28:56;;;;;;;38.60;23.60;;;15.90;1.00;;;;;;4974708;28;20240;-64
2021/07/11 01:31:25;;;;;;;35.80;21.70;;;15.80;99.90;;;;;;4974954;28;20224;-64
2021/07/11 01:33:52;;;;;;;37.23;21.97;;;15.70;99.90;;;;;;4974678;28;20639;-64
2021/07/11 01:36:21;;;;;;;34.27;21.73;;;15.80;99.90;;;;;;4974706;28;20228;-64
2021/07/11 01:38:49;;;;;;;35.87;20.77;;;15.80;99.90;;;;;;4974665;28;20218;-64
2021/07/11 01:41:18;;;;;;;35.17;21.30;;;15.70;99.90;;;;;;4974554;28;20343;-64
2021/07/11 01:43:48;;;;;;;39.17;22.40;;;15.70;99.90;;;;;;4974603;28;20208;-64
2021/07/11 01:46:15;;;;;;;37.23;21.80;;;15.70;99.90;;;;;;4974715;28;20585;-64
2021/07/11 01:48:44;;;;;;;45.73;23.13;;;15.70;99.90;;;;;;4974597;28;20683;-64
2021/07/11 01:51:11;;;;;;;43.10;23.10;;;15.60;99.90;;;;;;4974452;28;20208;-64
2021/07/11 01:53:40;;;;;;;42.90;23.30;;;15.60;99.90;;;;;;4974163;28;20731;-64
2021/07/11 01:56:09;;;;;;;48.03;23.23;;;15.60;99.90;;;;;;4974504;28;20239;-64
2021/07/11 01:58:36;;;;;;;42.97;22.70;;;15.60;1.00;;;;;;4974247;28;20216;-64
2021/07/11 02:01:07;;;;;;;45.23;22.47;;;15.60;1.00;;;;;;4974279;28;20223;-64
2021/07/11 02:03:34;;;;;;;48.67;23.87;;;15.50;1.00;;;;;;4974266;28;20256;-64
2021/07/11 02:06:01;;;;;;;53.77;24.13;;;15.50;1.00;;;;;;4973983;28;20262;-64
2021/07/11 02:08:28;;;;;;;55.47;25.03;;;15.50;1.00;;;;;;4974065;28;20630;-64
2021/07/11 02:10:55;;;;;;;50.53;23.57;;;15.50;1.00;;;;;;4974154;28;20266;-64
2021/07/11 02:13:27;;;;;;;57.87;26.20;;;15.50;1.00;;;;;;4974136;28;20228;-64
2021/07/11 02:15:55;;;;;;;51.77;24.63;;;15.40;1.00;;;;;;4973915;28;20696;-64
2021/07/11 02:18:26;;;;;;;54.37;25.43;;;15.50;1.00;;;;;;4974086;28;20204;-64
2021/07/11 02:20:55;;;;;;;55.60;25.67;;;15.40;1.00;;;;;;4973696;28;20216;-64
2021/07/11 02:23:24;;;;;;;54.83;24.67;;;15.40;1.00;;;;;;4973990;28;20263;-64
2021/07/11 02:25:51;;;;;;;49.70;24.53;;;15.40;1.00;;;;;;4973851;28;20212;-64
2021/07/11 02:28:20;;;;;;;51.43;25.33;;;15.40;1.00;;;;;;4973841;28;20224;-64
2021/07/11 02:30:52;;;;;;;55.70;25.80;;;15.40;1.00;;;;;;4973749;28;20213;-64
2021/07/11 02:33:27;;;;;;;53.03;25.13;;;15.40;1.00;;;;;;4973651;28;20608;-64
2021/07/11 02:35:56;;;;;;;52.63;24.90;;;15.40;1.00;;;;;;4973931;28;20207;-64
2021/07/11 02:38:23;;;;;;;48.47;24.23;;;15.50;1.00;;;;;;4973792;28;20266;-64
2021/07/11 02:40:51;;;;;;;51.83;25.37;;;15.50;1.00;;;;;;4973703;28;20208;-64
2021/07/11 02:43:18;;;;;;;58.83;27.23;;;15.40;1.00;;;;;;4973514;28;20211;-64
2021/07/11 02:45:46;;;;;;;56.00;27.50;;;15.40;1.00;;;;;;4973459;28;20270;-65
2021/07/11 02:48:13;;;;;;;55.23;27.00;;;15.40;1.00;;;;;;4973147;28;20279;-64
2021/07/11 02:50:45;;;;;;;55.97;25.93;;;15.50;1.00;;;;;;4973692;28;20744;-64
2021/07/11 02:53:16;;;;;;;69.80;28.23;;;15.50;1.00;;;;;;4973662;28;20232;-64
2021/07/11 02:55:45;;;;;;;58.73;27.27;;;15.40;1.00;;;;;;4973774;28;20212;-64
2021/07/11 02:58:17;;;;;;;55.57;25.57;;;15.50;1.00;;;;;;4973776;28;20294;-64
2021/07/11 03:00:43;;;;;;;63.83;27.77;;;15.50;1.00;;;;;;4976910;28;20208;-64
2021/07/11 03:03:12;;;;;;;56.83;27.47;;;15.50;1.00;;;;;;4977608;28;20673;-64
2021/07/11 03:05:39;;;;;;;61.00;27.53;;;15.50;1.00;;;;;;4973957;28;20208;-66
2021/07/11 03:08:07;;;;;;;57.20;27.50;;;15.60;1.00;;;;;;4976765;28;20283;-64
2021/07/11 03:10:36;;;;;;;56.97;27.63;;;15.60;1.00;;;;;;4975893;28;20212;-64
2021/07/11 03:13:04;;;;;;;57.60;27.73;;;15.60;1.00;;;;;;4975380;28;20228;-64
2021/07/11 03:15:31;;;;;;;60.97;28.37;;;15.60;1.00;;;;;;4973216;28;20632;-64
2021/07/11 03:18:00;;;;;;;57.53;26.10;;;15.60;1.00;;;;;;4973747;28;20291;-64
2021/07/11 03:20:27;;;;;;;59.90;27.73;;;15.70;1.00;;;;;;4973360;28;20250;-64
2021/07/11 03:22:56;;;;;;;52.33;26.33;;;15.70;1.00;;;;;;4973600;28;20204;-66
2021/07/11 03:25:24;;;;;;;52.33;26.07;;;15.70;1.00;;;;;;4972797;28;20259;-64
2021/07/11 03:27:52;;;;;;;60.10;27.60;;;15.70;1.00;;;;;;4972940;28;20236;-64
2021/07/11 03:30:21;;;;;;;60.20;27.80;;;15.70;1.00;;;;;;4973177;28;20212;-64
2021/07/11 03:32:52;;;;;;;55.57;26.70;;;15.70;1.00;;;;;;4973107;28;20232;-64
2021/07/11 03:35:22;;;;;;;69.67;28.10;;;15.70;1.00;;;;;;4972900;28;20208;-64
2021/07/11 03:37:51;;;;;;;57.57;28.33;;;15.70;1.00;;;;;;4973224;28;20232;-65
2021/07/11 03:40:23;;;;;;;62.17;29.47;;;15.80;1.00;;;;;;4972963;28;20826;-64
2021/07/11 03:42:54;;;;;;;68.23;29.43;;;15.80;1.00;;;;;;4973133;28;20259;-64
2021/07/11 03:45:22;;;;;;;58.00;26.70;;;15.80;1.00;;;;;;4972863;28;20231;-64
2021/07/11 03:47:53;;;;;;;59.07;28.47;;;15.80;1.00;;;;;;4972907;28;20232;-64
2021/07/11 03:50:21;;;;;;;60.73;28.63;;;15.80;1.00;;;;;;4972926;28;20340;-64
2021/07/11 03:52:51;;;;;;;59.40;28.20;;;15.80;1.00;;;;;;4972715;28;20278;-64
2021/07/11 03:55:19;;;;;;;69.20;29.23;;;15.80;1.00;;;;;;4972657;28;20919;-64
2021/07/11 03:57:49;;;;;;;62.17;27.33;;;15.80;1.00;;;;;;4972717;28;20236;-64
2021/07/11 04:00:19;;;;;;;57.17;28.10;;;15.90;1.00;;;;;;4972949;28;20267;-64
2021/07/11 04:02:48;;;;;;;55.90;26.27;;;15.90;1.00;;;;;;4972708;28;20208;-64
2021/07/11 04:05:17;;;;;;;52.80;26.00;;;15.90;1.00;;;;;;4972430;28;20208;-64
2021/07/11 04:07:45;;;;;;;57.70;27.70;;;15.90;1.00;;;;;;4972690;28;20779;-64
2021/07/11 04:10:13;;;;;;;59.33;27.03;;;15.90;1.00;;;;;;4972899;28;20208;-64
2021/07/11 04:12:40;;;;;;;60.83;27.23;;;15.90;1.00;;;;;;4972497;28;20701;-64
2021/07/11 04:15:07;;;;;;;54.93;27.63;;;15.90;1.00;;;;;;4972550;28;20263;-64
2021/07/11 04:17:37;;;;;;;51.67;26.07;;;16.00;1.00;;;;;;4972453;28;20232;-64
2021/07/11 04:20:06;;;;;;;52.30;26.80;;;16.00;1.00;;;;;;4972755;28;20204;-64
2021/07/11 04:22:33;;;;;;;54.30;27.07;;;16.00;1.00;;;;;;4972684;28;20275;-64
2021/07/11 04:25:02;;;;;;;48.50;26.23;;;16.00;1.00;;;;;;4972544;28;20259;-64
2021/07/11 04:27:29;;;;;;;52.60;27.40;;;16.10;1.00;;;;;;4973394;28;20224;-64
2021/07/11 04:29:57;;;;;;;52.00;26.23;;;16.00;1.00;;;;;;4975874;28;20216;-64
2021/07/11 04:32:23;;;;;;;54.40;27.17;;;16.10;1.00;;;;;;4975943;28;20639;-64
2021/07/11 04:34:51;;;;;;;55.93;27.90;;;16.10;1.00;;;;;;4975771;28;20212;-64
2021/07/11 04:37:18;;;;;;;54.77;27.03;;;16.10;1.00;;;;;;4976016;28;20295;-64
2021/07/11 04:39:44;;;;;;;49.27;26.07;;;16.10;1.00;;;;;;4975691;28;20213;-64
2021/07/11 04:42:12;;;;;;;48.93;25.80;;;16.10;1.00;;;;;;4975855;28;20262;-64
2021/07/11 04:44:41;;;;;;;51.23;26.33;;;16.10;1.00;;;;;;4975366;28;20629;-64
2021/07/11 04:47:07;;;;;;;56.83;28.60;;;16.10;1.00;;;;;;4975907;28;20232;-64
2021/07/11 04:49:34;;;;;;;58.80;29.43;;;16.10;1.00;;;;;;4975642;28;20562;-64
2021/07/11 04:52:04;;;;;;;55.67;27.87;;;16.10;1.00;;;;;;4975734;28;20263;-64
2021/07/11 04:54:32;;;;;;;53.13;27.63;;;16.00;1.00;;;;;;4975407;28;20255;-64
2021/07/11 04:56:59;;;;;;;51.80;26.50;;;16.10;1.00;;;;;;4975292;28;20303;-64
2021/07/11 04:59:26;;;;;;;51.10;27.17;;;16.10;1.00;;;;;;4975337;28;20213;-64
2021/07/11 05:01:53;;;;;;;52.93;27.67;;;16.10;1.00;;;;;;4975636;28;20239;-64
2021/07/11 05:04:19;;;;;;;54.63;28.33;;;16.10;1.00;;;;;;4975438;28;20201;-64
2021/07/11 05:06:46;;;;;;;56.57;28.80;;;16.10;1.00;;;;;;4975388;28;20224;-64
2021/07/11 05:09:14;;;;;;;54.30;29.03;;;16.20;1.00;;;;;;4975414;28;20213;-64
2021/07/11 05:11:40;;;;;;;55.60;29.33;;;16.20;1.00;;;;;;4974898;28;20209;-64
2021/07/11 05:14:07;;;;;;;58.60;28.80;;;16.20;1.00;;;;;;4975183;28;20286;-64
2021/07/11 05:16:34;;;;;;;54.10;30.10;;;16.30;1.00;;;;;;4975186;28;20678;-64
2021/07/11 05:19:00;;;;;;;60.83;30.83;;;16.30;1.00;;;;;;4975207;28;20211;-64
2021/07/11 05:21:29;;;;;;;58.47;29.80;;;16.20;1.00;;;;;;4975265;28;20299;-64
2021/07/11 05:23:56;;;;;;;63.30;31.40;;;16.20;1.00;;;;;;4974988;28;20204;-64
2021/07/11 05:26:24;;;;;;;57.87;31.83;;;16.20;1.00;;;;;;4974654;28;20224;-64
2021/07/11 05:28:51;;;;;;;59.27;32.17;;;16.20;1.00;;;;;;4975205;28;20205;-64
2021/07/11 05:31:17;;;;;;;56.93;33.63;;;16.10;99.90;;;;;;4975014;28;20340;-64
2021/07/11 05:33:44;;;;;;;56.20;31.30;;;16.10;99.90;;;;;;4974694;28;20689;-64
2021/07/11 05:36:12;;;;;;;61.23;33.50;;;16.20;99.90;;;;;;4974705;28;20208;-64
2021/07/11 05:38:40;;;;;;;58.97;34.80;;;16.20;99.90;;;;;;4974343;28;20728;-64
2021/07/11 05:41:07;;;;;;;58.13;33.77;;;16.30;99.90;;;;;;4974602;28;20216;-64
2021/07/11 05:43:36;;;;;;;53.67;33.33;;;16.20;99.90;;;;;;4974380;28;20205;-64
2021/07/11 05:46:03;;;;;;;54.97;33.87;;;16.30;99.90;;;;;;4974792;28;20255;-64
2021/07/11 05:48:29;;;;;;;55.20;32.73;;;16.30;99.90;;;;;;4974343;28;20354;-64
2021/07/11 05:50:56;;;;;;;54.87;33.10;;;16.30;99.90;;;;;;4974638;28;20216;-64
2021/07/11 05:53:23;;;;;;;55.13;33.20;;;16.40;99.90;;;;;;4974197;28;20224;-64
2021/07/11 05:55:50;;;;;;;58.73;33.17;;;16.40;99.90;;;;;;4974493;28;20212;-64
2021/07/11 05:58:16;;;;;;;54.40;33.00;;;16.50;99.90;;;;;;4974173;28;20300;-64
2021/07/11 06:00:44;;;;;;;52.50;30.67;;;16.60;99.90;;;;;;4974475;28;20259;-64
2021/07/11 06:03:11;;;;;;;48.13;30.37;;;16.50;99.90;;;;;;4974281;28;20208;-64
2021/07/11 06:05:38;;;;;;;46.50;30.03;;;16.60;99.90;;;;;;4974081;28;20558;-64
2021/07/11 06:08:06;;;;;;;47.77;30.10;;;16.70;99.90;;;;;;4974008;28;20240;-64
2021/07/11 06:10:33;;;;;;;56.77;32.07;;;16.80;99.90;;;;;;4973915;28;20208;-64
2021/07/11 06:12:59;;;;;;;52.97;30.93;;;16.70;99.90;;;;;;4974194;28;20220;-64
2021/07/11 06:15:26;;;;;;;51.90;30.23;;;16.70;99.90;;;;;;4973934;28;20209;-64
2021/07/11 06:17:54;;;;;;;56.37;33.67;;;16.60;99.90;;;;;;4974010;28;20283;-64
2021/07/11 06:20:22;;;;;;;57.07;32.73;;;16.60;99.90;;;;;;4973864;28;20632;-64
2021/07/11 06:22:49;;;;;;;58.00;33.27;;;16.50;99.90;;;;;;4973936;28;20208;-64
2021/07/11 06:25:15;;;;;;;54.13;32.63;;;16.50;99.90;;;;;;4973741;28;20229;-64
2021/07/11 06:27:44;;;;;;;61.43;35.33;;;16.60;99.90;;;;;;4973928;28;20232;-64
2021/07/11 06:30:12;;;;;;;50.03;32.50;;;16.50;99.90;;;;;;4973739;28;20263;-64
2021/07/11 06:32:40;;;;;;;59.87;34.40;;;16.60;99.90;;;;;;4973752;28;20212;-64
2021/07/11 06:35:10;;;;;;;56.90;33.13;;;16.60;99.90;;;;;;4973262;28;20240;-64
2021/07/11 06:37:37;;;;;;;58.43;34.40;;;16.70;99.90;;;;;;4974002;28;20275;-65
2021/07/11 06:40:05;;;;;;;58.00;33.57;;;16.80;99.90;;;;;;4973877;28;20212;-65
2021/07/11 06:42:32;;;;;;;60.33;35.93;;;16.80;48.30;;;;;;4973743;28;20348;-64
2021/07/11 06:44:58;;;;;;;57.43;34.40;;;16.90;25.70;;;;;;4973580;28;20278;-64
2021/07/11 06:47:25;;;;;;;54.37;34.37;;;16.90;44.80;;;;;;4973320;28;20229;-64
2021/07/11 06:49:52;;;;;;;57.43;34.17;;;17.00;1.00;;;;;;4973104;28;20263;-64
2021/07/11 06:52:19;;;;;;;52.83;34.30;;;17.10;1.00;;;;;;4973586;28;20240;-64
2021/07/11 06:54:48;;;;;;;55.23;34.03;;;17.20;99.90;;;;;;4973337;28;20287;-64
2021/07/11 06:57:15;;;;;;;54.50;33.13;;;17.20;1.00;;;;;;4973141;28;20616;-64
2021/07/11 06:59:41;;;;;;;52.83;34.13;;;17.30;99.90;;;;;;4973493;28;20259;-64
2021/07/11 07:02:08;;;;;;;48.53;31.67;;;17.30;99.90;;;;;;4974835;28;20212;-64
2021/07/11 07:04:35;;;;;;;49.43;30.90;;;17.20;99.90;;;;;;4976281;28;20631;-64
2021/07/11 07:07:02;;;;;;;50.00;32.13;;;17.30;1.00;;;;;;4973942;28;20287;-64
2021/07/11 07:09:30;;;;;;;55.60;34.10;;;17.10;99.90;;;;;;4973516;28;20211;-64
2021/07/11 07:11:56;;;;;;;50.77;33.53;;;17.10;1.00;;;;;;4973987;28;20208;-64
2021/07/11 07:14:24;;;;;;;55.90;34.07;;;17.10;99.90;;;;;;4976104;28;20228;-65
2021/07/11 07:16:50;;;;;;;52.43;34.93;;;17.00;99.90;;;;;;4976667;28;20234;-64
2021/07/11 07:19:17;;;;;;;61.50;36.63;;;17.00;99.90;;;;;;4973996;28;20224;-64
2021/07/11 07:21:43;;;;;;;51.57;34.17;;;17.00;99.90;;;;;;4973243;28;20266;-64
2021/07/11 07:24:10;;;;;;;49.10;32.83;;;17.00;1.00;;;;;;4972802;28;20720;-64
2021/07/11 07:26:38;;;;;;;50.60;33.23;;;17.20;95.70;;;;;;4972998;28;20283;-64
2021/07/11 07:29:05;;;;;;;42.77;29.83;;;17.20;99.90;;;;;;4973058;28;20259;-64
2021/07/11 07:31:31;;;;;;;42.73;30.40;;;17.30;99.90;;;;;;4973079;28;20208;-64
2021/07/11 07:33:58;;;;;;;43.43;29.57;;;17.40;99.90;;;;;;4972778;28;20228;-64
2021/07/11 07:36:25;;;;;;;42.40;28.43;;;17.50;1.00;;;;;;4973096;28;20232;-64
2021/07/11 07:38:51;;;;;;;39.30;28.80;;;17.60;99.90;;;;;;4972995;28;20216;-64
2021/07/11 07:41:18;;;;;;;47.80;30.17;;;17.60;70.50;;;;;;4972967;28;20212;-64
2021/07/11 07:43:46;;;;;;;45.60;31.03;;;17.70;99.90;;;;;;4972693;28;20689;-64
2021/07/11 07:46:13;;;;;;;44.30;30.00;;;17.80;75.30;;;;;;4972969;28;20324;-64
2021/07/11 07:48:39;;;;;;;42.37;29.67;;;17.90;1.00;;;;;;4973266;28;20283;-64
2021/07/11 07:51:06;;;;;;;42.50;29.90;;;18.10;99.90;;;;;;4972853;28;20208;-64
2021/07/11 07:53:32;;;;;;;44.47;30.17;;;18.10;99.90;;;;;;4972701;28;20220;-64
2021/07/11 07:55:59;;;;;;;47.37;31.03;;;18.20;99.90;;;;;;4972598;28;20673;-64
2021/07/11 07:58:26;;;;;;;46.33;32.03;;;18.30;99.90;;;;;;4972619;28;20270;-64
2021/07/11 08:00:54;;;;;;;44.77;31.47;;;18.30;99.90;;;;;;4970678;28;20204;-64
2021/07/11 08:03:21;;;;;;;46.10;32.40;;;18.50;99.90;;;;;;4976560;28;20204;-64
2021/07/11 08:05:48;;;;;;;48.80;32.50;;;18.70;1.00;;;;;;4976295;28;20275;-64
2021/07/11 08:08:15;;;;;;;44.37;31.83;;;19.00;99.90;;;;;;4976404;28;20232;-64
2021/07/11 08:10:42;;;;;;;44.40;31.93;;;19.10;99.90;;;;;;4976798;28;20267;-64
2021/07/11 08:13:08;;;;;;;43.13;30.83;;;19.20;99.90;;;;;;4975829;28;20212;-64
2021/07/11 08:15:35;;;;;;;45.97;32.40;;;19.30;99.90;;;;;;4976009;28;20676;-64
2021/07/11 08:18:03;;;;;;;42.13;29.63;;;19.40;99.90;;;;;;4975486;28;20271;-64
2021/07/11 08:20:30;;;;;;;33.00;25.70;;;19.50;99.90;;;;;;4982962;28;20208;-64
2021/07/11 08:22:58;;;;;;;34.93;27.03;;;19.50;1.00;;;;;;4995393;28;20211;-64
2021/07/11 08:25:25;;;;;;;34.77;24.67;;;19.60;99.90;;;;;;4995235;28;20273;-64
2021/07/11 08:27:51;;;;;;;33.73;25.27;;;19.90;1.00;;;;;;4995449;28;20282;-64
2021/07/11 08:30:19;;;;;;;34.33;25.97;;;19.80;99.90;;;;;;4995698;28;20273;-64
2021/07/11 08:32:46;;;;;;;38.57;26.30;;;19.80;1.00;;;;;;4995342;28;20302;-65
2021/07/11 08:35:14;;;;;;;35.90;26.40;;;19.90;99.90;;;;;;4995214;28;20277;-64
2021/07/11 08:37:41;;;;;;;35.77;26.50;;;19.60;99.90;;;;;;4995190;28;20232;-64
2021/07/11 08:40:10;;;;;;;35.93;26.53;;;19.20;99.90;;;;;;4995187;28;20207;-64
2021/07/11 08:42:39;;;;;;;37.67;27.80;;;19.10;1.00;;;;;;4995469;28;20219;-64
2021/07/11 08:45:07;;;;;;;38.40;28.10;;;19.10;1.00;;;;;;4995110;28;20586;-67
2021/07/11 08:47:36;;;;;;;36.03;27.90;;;19.00;1.00;;;;;;4995289;28;20232;-67
2021/07/11 08:50:04;;;;;;;38.10;26.80;;;19.00;99.90;;;;;;4994891;28;20208;-67
2021/07/11 08:52:33;;;;;;;42.30;28.73;;;19.10;99.90;;;;;;4994972;28;20262;-67
2021/07/11 08:54:59;;;;;;;38.50;28.27;;;19.20;99.90;;;;;;4994814;28;20293;-67
2021/07/11 08:57:26;;;;;;;34.03;25.67;;;19.20;99.90;;;;;;4994769;28;20236;-67
2021/07/11 08:59:53;;;;;;;39.73;28.60;;;19.30;99.90;;;;;;4994949;28;20203;-67
2021/07/11 09:02:19;;;;;;;41.13;29.20;;;19.30;96.10;;;;;;4995104;28;20215;-67
2021/07/11 09:04:48;;;;;;;41.73;30.13;;;19.50;1.00;;;;;;4994600;28;20278;-67
2021/07/11 09:07:18;;;;;;;40.27;28.43;;;19.80;1.00;;;;;;4994554;28;20231;-67
2021/07/11 09:09:52;;;;;;;38.60;28.67;;;20.20;73.30;;;;;;4994999;28;20211;-67
2021/07/11 09:12:19;;;;;;;41.37;29.27;;;20.20;1.00;;;;;;4994826;28;20210;-67
2021/07/11 09:14:46;;;;;;;41.13;29.60;;;19.90;99.90;;;;;;4993773;28;20239;-66
2021/07/11 09:17:14;;;;;;;38.13;28.77;;;19.80;99.90;;;;;;4994469;28;20227;-67
2021/07/11 09:19:42;;;;;;;43.83;31.10;;;19.70;99.90;;;;;;4994355;28;20216;-67
2021/07/11 09:22:10;;;;;;;42.63;28.67;;;19.40;99.90;;;;;;4994665;28;20208;-67
2021/07/11 09:24:39;;;;;;;46.03;29.20;;;19.40;1.00;;;;;;4985286;28;20275;-66
2021/07/11 09:27:09;;;;;;;45.03;29.13;;;19.40;96.20;;;;;;4974193;28;20823;-65
2021/07/11 09:29:37;;;;;;;46.80;29.47;;;19.40;99.90;;;;;;4974662;28;20212;-65
2021/07/11 09:32:05;;;;;;;47.73;31.03;;;19.30;1.00;;;;;;4974522;28;20256;-65
2021/07/11 09:34:33;;;;;;;53.13;32.90;;;19.20;1.00;;;;;;4974226;28;20236;-65
2021/07/11 09:37:09;;;;;;;57.37;34.30;;;19.10;99.90;;;;;;4974297;28;20233;-65
2021/07/11 09:39:37;;;;;;;54.73;33.23;;;18.90;1.00;;;;;;4974533;28;20299;-65
2021/07/11 09:42:05;;;;;;;56.83;34.23;;;18.80;79.90;;;;;;4974401;28;20208;-65
2021/07/11 09:44:43;;;;;;;55.63;32.67;;;18.90;99.90;;;;;;4973984;28;20263;-65
2021/07/11 09:47:17;;;;;;;60.00;35.17;;;18.80;99.90;;;;;;4974233;28;20255;-65
2021/07/11 09:49:45;;;;;;;52.77;34.20;;;18.90;37.10;;;;;;4974404;28;20704;-65
2021/07/11 09:52:11;;;;;;;53.73;35.20;;;19.10;99.90;;;;;;4974360;28;20205;-66
2021/07/11 09:54:38;;;;;;;53.87;32.60;;;19.20;1.00;;;;;;4973824;28;20224;-65
2021/07/11 09:57:11;;;;;;;58.17;35.00;;;19.20;99.90;;;;;;4974719;28;20311;-65
2021/07/11 09:59:38;;;;;;;56.27;32.50;;;19.30;99.90;;;;;;4974120;28;20208;-65
2021/07/11 10:02:06;;;;;;;51.90;31.30;;;19.50;1.00;;;;;;4974353;28;20208;-65
2021/07/11 10:04:33;;;;;;;45.73;29.73;;;19.70;26.70;;;;;;4973721;28;20237;-65
2021/07/11 10:07:01;;;;;;;48.10;29.93;;;19.70;1.00;;;;;;4973894;28;20232;-65
2021/07/11 10:09:28;;;;;;;45.57;29.70;;;20.30;1.00;;;;;;4974290;28;20208;-66
2021/07/11 10:11:54;;;;;;;40.73;28.10;;;20.80;1.00;;;;;;4973953;28;20702;-65
2021/07/11 10:14:21;;;;;;;45.40;27.63;;;20.90;99.90;;;;;;4974064;28;20228;-65
2021/07/11 10:16:48;;;;;;;42.83;27.53;;;21.00;99.90;;;;;;4973513;28;20783;-65
2021/07/11 10:19:17;;;;;;;39.00;26.10;;;21.20;99.90;;;;;;4973813;28;20204;-66
2021/07/11 10:21:47;;;;;;;40.73;27.10;;;21.20;75.40;;;;;;4973596;28;20212;-65
2021/07/11 10:24:19;;;;;;;40.50;25.90;;;21.20;99.90;;;;;;4973354;28;20193;-65
2021/07/11 10:26:46;;;;;;;37.70;24.27;;;21.20;99.90;;;;;;4972717;28;20232;-65
2021/07/11 10:29:15;;;;;;;36.87;25.43;;;21.20;11.00;;;;;;4973877;28;20208;-65
2021/07/11 10:31:44;;;;;;;38.57;25.67;;;21.10;99.90;;;;;;4974111;28;20208;-65
2021/07/11 10:34:11;;;;;;;32.30;23.23;;;21.10;99.90;;;;;;4973417;28;20739;-65
2021/07/11 10:36:42;;;;;;;35.13;23.70;;;21.00;20.20;;;;;;4973403;28;20224;-66
2021/07/11 10:39:12;;;;;;;32.47;23.43;;;20.90;1.00;;;;;;4973841;28;20206;-66
2021/07/11 10:41:48;;;;;;;38.30;24.00;;;20.90;1.00;;;;;;4973672;28;20212;-65
2021/07/11 10:44:19;;;;;;;32.90;22.97;;;21.10;38.80;;;;;;4973424;28;20188;-66
2021/07/11 10:46:51;;;;;;;34.90;24.63;;;21.10;1.00;;;;;;4973347;28;20236;-66
2021/07/11 10:49:21;;;;;;;33.80;22.43;;;21.10;1.00;;;;;;4972936;28;20212;-65
2021/07/11 10:51:50;;;;;;;41.97;29.20;;;21.30;1.00;;;;;;4973530;28;20231;-66
2021/07/11 10:54:23;;;;;;;42.90;30.07;;;21.10;1.00;;;;;;4972021;28;21002;-66
2021/07/11 10:56:50;;;;;;;40.40;30.20;;;20.90;1.00;;;;;;4975366;28;20231;-66
2021/07/11 10:59:32;;;;;;;40.00;30.37;;;20.80;1.00;;;;;;4992440;28;20802;-65
2021/07/11 11:02:00;;;;;;;37.80;28.73;;;20.60;1.00;;;;;;4992870;28;20212;-66
2021/07/11 11:04:28;;;;;;;41.27;30.37;;;20.50;1.00;;;;;;4993121;28;20211;-66
2021/07/11 11:06:56;;;;;;;39.93;28.87;;;20.30;43.70;;;;;;4972681;28;20225;-67
2021/07/11 11:09:39;;;;;;;41.47;28.50;;;20.40;16.80;;;;;;4977661;28;20228;-67
2021/07/11 11:12:23;;;;;;;39.40;28.93;;;20.30;7.50;;;;;;4977532;28;20203;-66
2021/07/11 11:14:58;;;;;;;33.33;25.77;;;20.40;99.90;;;;;;4979196;28;20283;-66
2021/07/11 11:17:29;;;;;;;35.63;26.60;;;20.70;46.10;;;;;;4975844;28;20228;-66
2021/07/11 11:19:56;;;;;;;35.07;25.10;;;21.10;99.90;;;;;;4977084;28;20262;-67
2021/07/11 11:22:24;;;;;;;31.73;24.47;;;21.40;99.90;;;;;;4979090;28;20212;-70
2021/07/11 11:24:51;;;;;;;28.50;22.90;;;21.70;1.00;;;;;;4978352;28;20208;-70
2021/07/11 11:27:30;;;;;;;30.13;22.13;;;22.00;1.00;;;;;;4976690;28;20275;-69
2021/07/11 11:30:07;;;;;;;26.83;21.70;;;22.10;1.00;;;;;;4973766;28;20282;-66
2021/07/11 11:32:34;;;;;;;27.63;22.93;;;22.30;1.00;;;;;;4973282;28;20195;-66
2021/07/11 11:35:00;;;;;;;29.07;22.57;;;22.40;1.00;;;;;;4972699;28;20650;-66
2021/07/11 11:37:31;;;;;;;31.93;23.07;;;22.40;1.00;;;;;;4975529;28;20231;-65
2021/07/11 11:40:02;;;;;;;29.30;21.17;;;22.50;1.00;;;;;;4977022;28;20367;-66
2021/07/11 11:42:28;;;;;;;26.30;20.33;;;22.40;1.00;;;;;;4977533;28;20216;-65
2021/07/11 11:45:04;;;;;;;27.07;21.77;;;22.40;1.00;;;;;;4977017;28;20239;-69
2021/07/11 11:47:31;;;;;;;31.00;22.93;;;22.40;1.00;;;;;;4977543;28;20224;-66
2021/07/11 11:49:58;;;;;;;27.27;23.10;;;22.50;1.00;;;;;;4977241;28;20208;-67
2021/07/11 11:52:24;;;;;;;27.47;22.70;;;22.50;1.00;;;;;;4976977;28;20255;-66
2021/07/11 11:54:52;;;;;;;27.33;22.17;;;22.60;1.00;;;;;;4976092;28;20291;-68
2021/07/11 11:57:32;;;;;;;26.53;22.23;;;22.50;1.00;;;;;;4976871;28;20267;-68
2021/07/11 11:59:59;;;;;;;30.70;22.93;;;22.30;99.90;;;;;;4976400;28;20203;-67
2021/07/11 12:02:26;;;;;;;26.40;21.67;;;22.50;1.00;;;;;;4976380;28;20208;-68
2021/07/11 12:04:53;;;;;;;29.33;24.20;;;22.50;99.90;;;;;;4976046;28;20240;-70
2021/07/11 12:07:20;;;;;;;30.23;23.30;;;22.40;99.90;;;;;;4976166;28;20224;-68
2021/07/11 12:09:46;;;;;;;25.40;21.53;;;22.30;1.00;;;;;;4976141;28;20204;-66
2021/07/11 12:12:18;;;;;;;27.43;21.43;;;22.20;99.90;;;;;;4976061;28;20266;-66
2021/07/11 12:14:45;;;;;;;28.63;22.07;;;21.90;99.90;;;;;;4975629;28;20279;-66
2021/07/11 12:17:13;;;;;;;24.67;21.83;;;22.10;1.00;;;;;;4975938;28;20224;-66
2021/07/11 12:19:44;;;;;;;25.47;20.23;;;22.20;99.90;;;;;;4976022;28;20212;-66
2021/07/11 12:22:22;;;;;;;23.57;19.60;;;22.20;99.90;;;;;;4976216;28;20208;-67
2021/07/11 12:25:03;;;;;;;23.00;19.43;;;22.40;99.90;;;;;;4975626;28;20263;-67
2021/07/11 12:27:34;;;;;;;21.70;18.83;;;22.40;99.90;;;;;;4975445;28;20236;-67
2021/07/11 12:30:13;;;;;;;18.17;15.47;;;22.60;99.90;;;;;;4975730;28;20692;-67
2021/07/11 12:32:42;;;;;;;17.80;15.50;;;22.80;99.90;;;;;;4977738;28;20215;-66
2021/07/11 12:35:11;;;;;;;19.77;15.43;;;22.90;99.90;;;;;;4994113;28;20282;-67
2021/07/11 12:37:48;;;;;;;17.37;14.77;;;22.90;99.90;;;;;;4995126;28;20224;-66